PWSweather.com
Personal Weather Stations
Station Observations
WD4JKH
Forsyth, GA 31029

Forsyth, GA 31029

Lat: 33.033225, Lon: -83.927995

Elevation: 709

Station Type: Davis Vantage VUE

High Low Average
Temperature 85.6°F29.8°C 62.6°F17.0°C 74.6°F23.7°C
Dew Point 64.1°F17.8°C 56.1°F13.4°C 59.5°F15.3°C
Winds 5.4 mph 8.7 kmh Calm Calm 2.0 mph SSE3.2 kmh SSE
Wind Gusts 11.0 mph17.7 kmh -- 5.0 mph8.0 kmh
Humidity 85% 40% 61%
Pressure 30.19 in1022.4 mb 30.09 in1019.0 mb -
Precipitation 0.00 in0.0 mm - -
Hour Temp Dew Point Humidity Winds Wind Gusts Pressure Precip Precip Rate Daily Precip Total
12:02 AM 67.5°F19.7°C 62.5°F16.9°C 84% 1.0 mph SW1.6 kmh SW 3.0 mph4.8 kmh 30.09 in1019.0 mb 0.00 in0.0 mm 0.00 in0.0 mm 0.00 in0.0 mm
12:07 AM 67.2°F19.6°C 62.2°F16.8°C 84% 1.0 mph SW1.6 kmh SW 3.0 mph4.8 kmh 30.09 in1019.0 mb 0.00 in0.0 mm 0.00 in0.0 mm 0.00 in0.0 mm
12:12 AM 67.0°F19.4°C 62.3°F16.8°C 85% Calm Calm 3.0 mph4.8 kmh 30.09 in1019.0 mb 0.00 in0.0 mm 0.00 in0.0 mm 0.00 in0.0 mm
12:17 AM 66.8°F19.3°C 62.2°F16.8°C 85% Calm Calm 2.0 mph3.2 kmh 30.09 in1019.0 mb 0.00 in0.0 mm 0.00 in0.0 mm 0.00 in0.0 mm
12:22 AM 66.8°F19.3°C 62.1°F16.7°C 85% Calm Calm 1.0 mph1.6 kmh 30.09 in1019.0 mb 0.00 in0.0 mm 0.00 in0.0 mm 0.00 in0.0 mm
12:27 AM 66.7°F19.3°C 62.0°F16.7°C 85% 1.0 mph SW1.6 kmh SW 1.0 mph1.6 kmh 30.09 in1019.0 mb 0.00 in0.0 mm 0.00 in0.0 mm 0.00 in0.0 mm
12:32 AM 66.7°F19.3°C 62.0°F16.7°C 85% 1.1 mph SW1.8 kmh SW 2.0 mph3.2 kmh 30.09 in1019.0 mb 0.00 in0.0 mm 0.00 in0.0 mm 0.00 in0.0 mm
12:37 AM 66.7°F19.3°C 61.7°F16.5°C 84% 1.0 mph SW1.6 kmh SW 2.0 mph3.2 kmh 30.09 in1019.0 mb 0.00 in0.0 mm 0.00 in0.0 mm 0.00 in0.0 mm
12:42 AM 66.5°F19.2°C 61.8°F16.6°C 85% Calm Calm 2.0 mph3.2 kmh 30.10 in1019.3 mb 0.00 in0.0 mm 0.00 in0.0 mm 0.00 in0.0 mm
12:47 AM 66.3°F19.1°C 61.3°F16.3°C 84% 1.0 mph SW1.6 kmh SW 2.0 mph3.2 kmh 30.10 in1019.3 mb 0.00 in0.0 mm 0.00 in0.0 mm 0.00 in0.0 mm
12:52 AM 66.4°F19.1°C 61.1°F16.2°C 83% 1.1 mph SW1.8 kmh SW 2.0 mph3.2 kmh 30.09 in1019.0 mb 0.00 in0.0 mm 0.00 in0.0 mm 0.00 in0.0 mm
12:57 AM 66.6°F19.2°C 60.9°F16.1°C 82% 1.7 mph SW2.7 kmh SW 3.0 mph4.8 kmh 30.10 in1019.3 mb 0.00 in0.0 mm 0.00 in0.0 mm 0.00 in0.0 mm
01:02 AM 66.6°F19.2°C 60.6°F15.9°C 81% 1.5 mph SW2.4 kmh SW 3.0 mph4.8 kmh 30.09 in1019.0 mb 0.00 in0.0 mm 0.00 in0.0 mm 0.00 in0.0 mm
01:07 AM 66.6°F19.2°C 60.2°F15.7°C 80% 1.4 mph SW2.3 kmh SW 3.0 mph4.8 kmh 30.09 in1019.0 mb 0.00 in0.0 mm 0.00 in0.0 mm 0.00 in0.0 mm
01:12 AM 66.7°F19.3°C 60.0°F15.6°C 79% 1.4 mph SW2.3 kmh SW 3.0 mph4.8 kmh 30.09 in1019.0 mb 0.00 in0.0 mm 0.00 in0.0 mm 0.00 in0.0 mm
01:17 AM 66.7°F19.3°C 59.6°F15.3°C 78% 1.7 mph SW2.7 kmh SW 3.0 mph4.8 kmh 30.09 in1019.0 mb 0.00 in0.0 mm 0.00 in0.0 mm 0.00 in0.0 mm
01:22 AM 66.8°F19.3°C 59.5°F15.3°C 77% 1.6 mph SW2.6 kmh SW 3.0 mph4.8 kmh 30.09 in1019.0 mb 0.00 in0.0 mm 0.00 in0.0 mm 0.00 in0.0 mm
01:27 AM 66.7°F19.3°C 59.3°F15.2°C 77% 1.2 mph SW1.9 kmh SW 3.0 mph4.8 kmh 30.10 in1019.3 mb 0.00 in0.0 mm 0.00 in0.0 mm 0.00 in0.0 mm
01:32 AM 66.5°F19.2°C 59.1°F15.1°C 77% 1.0 mph SW1.6 kmh SW 3.0 mph4.8 kmh 30.09 in1019.0 mb 0.00 in0.0 mm 0.00 in0.0 mm 0.00 in0.0 mm
01:37 AM 66.3°F19.1°C 58.9°F14.9°C 77% 1.0 mph WSW1.6 kmh WSW 3.0 mph4.8 kmh 30.09 in1019.0 mb 0.00 in0.0 mm 0.00 in0.0 mm 0.00 in0.0 mm
01:42 AM 66.1°F18.9°C 58.7°F14.8°C 77% 1.4 mph SW2.3 kmh SW 3.0 mph4.8 kmh 30.09 in1019.0 mb 0.00 in0.0 mm 0.00 in0.0 mm 0.00 in0.0 mm
01:47 AM 66.1°F18.9°C 58.8°F14.9°C 77% 1.3 mph SW2.1 kmh SW 3.0 mph4.8 kmh 30.09 in1019.0 mb 0.00 in0.0 mm 0.00 in0.0 mm 0.00 in0.0 mm
01:52 AM 66.0°F18.9°C 58.3°F14.6°C 76% 1.2 mph SW1.9 kmh SW 3.0 mph4.8 kmh 30.09 in1019.0 mb 0.00 in0.0 mm 0.00 in0.0 mm 0.00 in0.0 mm
01:57 AM 66.1°F18.9°C 58.1°F14.5°C 75% 1.5 mph SW2.4 kmh SW 3.0 mph4.8 kmh 30.09 in1019.0 mb 0.00 in0.0 mm 0.00 in0.0 mm 0.00 in0.0 mm
02:02 AM 66.1°F18.9°C 58.1°F14.5°C 75% 1.5 mph WSW2.4 kmh WSW 3.0 mph4.8 kmh 30.09 in1019.0 mb 0.00 in0.0 mm 0.00 in0.0 mm 0.00 in0.0 mm
02:07 AM 66.1°F18.9°C 57.7°F14.3°C 74% 1.5 mph SW2.4 kmh SW 3.0 mph4.8 kmh 30.09 in1019.0 mb 0.00 in0.0 mm 0.00 in0.0 mm 0.00 in0.0 mm
02:12 AM 66.2°F19.0°C 57.8°F14.3°C 74% 1.4 mph SW2.3 kmh SW 3.0 mph4.8 kmh 30.09 in1019.0 mb 0.00 in0.0 mm 0.00 in0.0 mm 0.00 in0.0 mm
02:17 AM 65.9°F18.8°C 57.9°F14.4°C 75% 1.0 mph SW1.6 kmh SW 3.0 mph4.8 kmh 30.09 in1019.0 mb 0.00 in0.0 mm 0.00 in0.0 mm 0.00 in0.0 mm
02:22 AM 65.6°F18.7°C 58.3°F14.6°C 77% 1.4 mph SW2.3 kmh SW 3.0 mph4.8 kmh 30.09 in1019.0 mb 0.00 in0.0 mm 0.00 in0.0 mm 0.00 in0.0 mm
02:27 AM 65.4°F18.6°C 58.1°F14.5°C 77% 1.0 mph SW1.6 kmh SW 3.0 mph4.8 kmh 30.09 in1019.0 mb 0.00 in0.0 mm 0.00 in0.0 mm 0.00 in0.0 mm
02:32 AM 65.3°F18.5°C 58.4°F14.7°C 78% 1.5 mph SW2.4 kmh SW 3.0 mph4.8 kmh 30.09 in1019.0 mb 0.00 in0.0 mm 0.00 in0.0 mm 0.00 in0.0 mm
02:37 AM 65.2°F18.4°C 57.9°F14.4°C 77% 1.2 mph SW1.9 kmh SW 3.0 mph4.8 kmh 30.09 in1019.0 mb 0.00 in0.0 mm 0.00 in0.0 mm 0.00 in0.0 mm
02:42 AM 65.2°F18.4°C 57.6°F14.2°C 76% 1.4 mph SW2.3 kmh SW 3.0 mph4.8 kmh 30.09 in1019.0 mb 0.00 in0.0 mm 0.00 in0.0 mm 0.00 in0.0 mm
02:47 AM 65.1°F18.4°C 57.5°F14.2°C 76% 1.0 mph SW1.6 kmh SW 3.0 mph4.8 kmh 30.09 in1019.0 mb 0.00 in0.0 mm 0.00 in0.0 mm 0.00 in0.0 mm
02:51 AM 65.1°F18.4°C 57.1°F13.9°C 75% 1.1 mph SW1.8 kmh SW 3.0 mph4.8 kmh 30.09 in1019.0 mb 0.00 in0.0 mm 0.00 in0.0 mm 0.00 in0.0 mm
02:56 AM 65.2°F18.4°C 56.8°F13.8°C 74% 1.3 mph SW2.1 kmh SW 3.0 mph4.8 kmh 30.10 in1019.3 mb 0.00 in0.0 mm 0.00 in0.0 mm 0.00 in0.0 mm
03:01 AM 65.3°F18.5°C 56.6°F13.7°C 73% 1.4 mph SW2.3 kmh SW 3.0 mph4.8 kmh 30.09 in1019.0 mb 0.00 in0.0 mm 0.00 in0.0 mm 0.00 in0.0 mm
03:06 AM 65.2°F18.4°C 56.5°F13.6°C 73% 1.3 mph SW2.1 kmh SW 3.0 mph4.8 kmh 30.09 in1019.0 mb 0.00 in0.0 mm 0.00 in0.0 mm 0.00 in0.0 mm
03:11 AM 65.1°F18.4°C 56.4°F13.6°C 73% 1.4 mph SW2.3 kmh SW 4.0 mph6.4 kmh 30.10 in1019.3 mb 0.00 in0.0 mm 0.00 in0.0 mm 0.00 in0.0 mm
03:16 AM 65.2°F18.4°C 56.1°F13.4°C 72% 1.6 mph SW2.6 kmh SW 4.0 mph6.4 kmh 30.10 in1019.3 mb 0.00 in0.0 mm 0.00 in0.0 mm 0.00 in0.0 mm
03:21 AM 65.3°F18.5°C 56.2°F13.4°C 72% 1.6 mph SW2.6 kmh SW 5.0 mph8.0 kmh 30.10 in1019.3 mb 0.00 in0.0 mm 0.00 in0.0 mm 0.00 in0.0 mm
03:26 AM 65.2°F18.4°C 56.5°F13.6°C 73% 2.1 mph SW3.4 kmh SW 5.0 mph8.0 kmh 30.10 in1019.3 mb 0.00 in0.0 mm 0.00 in0.0 mm 0.00 in0.0 mm
03:31 AM 65.1°F18.4°C 56.4°F13.6°C 73% 1.2 mph WSW1.9 kmh WSW 5.0 mph8.0 kmh 30.10 in1019.3 mb 0.00 in0.0 mm 0.00 in0.0 mm 0.00 in0.0 mm
03:36 AM 65.0°F18.3°C 56.6°F13.7°C 74% 2.2 mph SW3.5 kmh SW 5.0 mph8.0 kmh 30.10 in1019.3 mb 0.00 in0.0 mm 0.00 in0.0 mm 0.00 in0.0 mm
03:41 AM 65.0°F18.3°C 57.0°F13.9°C 75% 1.8 mph SW2.9 kmh SW 4.0 mph6.4 kmh 30.10 in1019.3 mb 0.00 in0.0 mm 0.00 in0.0 mm 0.00 in0.0 mm
03:46 AM 65.0°F18.3°C 57.0°F13.9°C 75% 1.1 mph WSW1.8 kmh WSW 4.0 mph6.4 kmh 30.10 in1019.3 mb 0.00 in0.0 mm 0.00 in0.0 mm 0.00 in0.0 mm
03:51 AM 65.2°F18.4°C 57.2°F14.0°C 75% 1.4 mph W2.3 kmh W 4.0 mph6.4 kmh 30.10 in1019.3 mb 0.00 in0.0 mm 0.00 in0.0 mm 0.00 in0.0 mm
03:56 AM 65.3°F18.5°C 57.3°F14.1°C 75% 1.8 mph WSW2.9 kmh WSW 4.0 mph6.4 kmh 30.10 in1019.3 mb 0.00 in0.0 mm 0.00 in0.0 mm 0.00 in0.0 mm
04:01 AM 65.4°F18.6°C 57.3°F14.1°C 75% 1.8 mph WSW2.9 kmh WSW 4.0 mph6.4 kmh 30.10 in1019.3 mb 0.00 in0.0 mm 0.00 in0.0 mm 0.00 in0.0 mm
04:06 AM 65.4°F18.6°C 57.4°F14.1°C 75% 1.7 mph SW2.7 kmh SW 5.0 mph8.0 kmh 30.10 in1019.3 mb 0.00 in0.0 mm 0.00 in0.0 mm 0.00 in0.0 mm
04:11 AM 65.2°F18.4°C 57.6°F14.2°C 76% 1.5 mph WSW2.4 kmh WSW 5.0 mph8.0 kmh 30.10 in1019.3 mb 0.00 in0.0 mm 0.00 in0.0 mm 0.00 in0.0 mm
04:16 AM 65.2°F18.4°C 57.6°F14.2°C 76% 1.3 mph W2.1 kmh W 5.0 mph8.0 kmh 30.10 in1019.3 mb 0.00 in0.0 mm 0.00 in0.0 mm 0.00 in0.0 mm
04:21 AM 65.3°F18.5°C 57.7°F14.3°C 76% 1.9 mph WSW3.1 kmh WSW 5.0 mph8.0 kmh 30.10 in1019.3 mb 0.00 in0.0 mm 0.00 in0.0 mm 0.00 in0.0 mm
04:26 AM 65.6°F18.7°C 57.6°F14.2°C 75% 3.0 mph W4.8 kmh W 6.0 mph9.7 kmh 30.10 in1019.3 mb 0.00 in0.0 mm 0.00 in0.0 mm 0.00 in0.0 mm
04:31 AM 65.9°F18.8°C 57.5°F14.2°C 74% 1.6 mph W2.6 kmh W 6.0 mph9.7 kmh 30.10 in1019.3 mb 0.00 in0.0 mm 0.00 in0.0 mm 0.00 in0.0 mm
04:36 AM 66.1°F18.9°C 57.3°F14.1°C 73% 2.3 mph WSW3.7 kmh WSW 6.0 mph9.7 kmh 30.10 in1019.3 mb 0.00 in0.0 mm 0.00 in0.0 mm 0.00 in0.0 mm
04:41 AM 66.3°F19.1°C 57.2°F14.0°C 72% 1.6 mph WSW2.6 kmh WSW 6.0 mph9.7 kmh 30.10 in1019.3 mb 0.00 in0.0 mm 0.00 in0.0 mm 0.00 in0.0 mm
04:46 AM 66.5°F19.2°C 57.3°F14.1°C 72% 2.0 mph W3.2 kmh W 4.0 mph6.4 kmh 30.10 in1019.3 mb 0.00 in0.0 mm 0.00 in0.0 mm 0.00 in0.0 mm
04:51 AM 66.6°F19.2°C 57.1°F13.9°C 71% 1.6 mph WNW2.6 kmh WNW 4.0 mph6.4 kmh 30.10 in1019.3 mb 0.00 in0.0 mm 0.00 in0.0 mm 0.00 in0.0 mm
04:56 AM 66.9°F19.4°C 57.0°F13.9°C 70% 2.0 mph W3.2 kmh W 4.0 mph6.4 kmh 30.10 in1019.3 mb 0.00 in0.0 mm 0.00 in0.0 mm 0.00 in0.0 mm
05:01 AM 67.2°F19.6°C 56.5°F13.6°C 68% 2.2 mph W3.5 kmh W 5.0 mph8.0 kmh 30.10 in1019.3 mb 0.00 in0.0 mm 0.00 in0.0 mm 0.00 in0.0 mm
05:06 AM 67.3°F19.6°C 56.9°F13.8°C 69% 2.1 mph W3.4 kmh W 5.0 mph8.0 kmh 30.10 in1019.3 mb 0.00 in0.0 mm 0.00 in0.0 mm 0.00 in0.0 mm
05:11 AM 66.8°F19.3°C 57.3°F14.1°C 71% 1.8 mph SW2.9 kmh SW 5.0 mph8.0 kmh 30.11 in1019.6 mb 0.00 in0.0 mm 0.00 in0.0 mm 0.00 in0.0 mm
05:16 AM 65.8°F18.8°C 57.4°F14.1°C 74% 1.5 mph W2.4 kmh W 5.0 mph8.0 kmh 30.11 in1019.6 mb 0.00 in0.0 mm 0.00 in0.0 mm 0.00 in0.0 mm
05:21 AM 65.1°F18.4°C 57.5°F14.2°C 76% 1.0 mph W1.6 kmh W 4.0 mph6.4 kmh 30.11 in1019.6 mb 0.00 in0.0 mm 0.00 in0.0 mm 0.00 in0.0 mm
05:26 AM 64.7°F18.2°C 57.4°F14.1°C 77% Calm Calm 4.0 mph6.4 kmh 30.11 in1019.6 mb 0.00 in0.0 mm 0.00 in0.0 mm 0.00 in0.0 mm
05:31 AM 64.4°F18.0°C 57.5°F14.2°C 78% 1.0 mph W1.6 kmh W 4.0 mph6.4 kmh 30.11 in1019.6 mb 0.00 in0.0 mm 0.00 in0.0 mm 0.00 in0.0 mm
05:36 AM 64.4°F18.0°C 57.5°F14.2°C 78% 1.5 mph WSW2.4 kmh WSW 3.0 mph4.8 kmh 30.12 in1020.0 mb 0.00 in0.0 mm 0.00 in0.0 mm 0.00 in0.0 mm
05:41 AM 64.2°F17.9°C 57.3°F14.1°C 78% 1.0 mph W1.6 kmh W 3.0 mph4.8 kmh 30.12 in1020.0 mb 0.00 in0.0 mm 0.00 in0.0 mm 0.00 in0.0 mm
05:46 AM 63.9°F17.7°C 57.3°F14.1°C 79% Calm Calm 3.0 mph4.8 kmh 30.12 in1020.0 mb 0.00 in0.0 mm 0.00 in0.0 mm 0.00 in0.0 mm
05:51 AM 63.6°F17.6°C 57.4°F14.1°C 80% 1.4 mph WSW2.3 kmh WSW 3.0 mph4.8 kmh 30.12 in1020.0 mb 0.00 in0.0 mm 0.00 in0.0 mm 0.00 in0.0 mm
05:56 AM 63.6°F17.6°C 57.3°F14.1°C 80% Calm Calm 3.0 mph4.8 kmh 30.12 in1020.0 mb 0.00 in0.0 mm 0.00 in0.0 mm 0.00 in0.0 mm
06:01 AM 63.6°F17.6°C 57.0°F13.9°C 79% 1.0 mph W1.6 kmh W 3.0 mph4.8 kmh 30.12 in1020.0 mb 0.00 in0.0 mm 0.00 in0.0 mm 0.00 in0.0 mm
06:06 AM 63.5°F17.5°C 56.9°F13.8°C 79% 1.1 mph W1.8 kmh W 3.0 mph4.8 kmh 30.13 in1020.3 mb 0.00 in0.0 mm 0.00 in0.0 mm 0.00 in0.0 mm
06:11 AM 63.6°F17.6°C 57.0°F13.9°C 79% 1.5 mph W2.4 kmh W 2.0 mph3.2 kmh 30.13 in1020.3 mb 0.00 in0.0 mm 0.00 in0.0 mm 0.00 in0.0 mm
06:16 AM 63.8°F17.7°C 56.8°F13.8°C 78% Calm Calm 2.0 mph3.2 kmh 30.13 in1020.3 mb 0.00 in0.0 mm 0.00 in0.0 mm 0.00 in0.0 mm
06:22 AM 63.7°F17.6°C 57.1°F13.9°C 79% Calm Calm 2.0 mph3.2 kmh 30.13 in1020.3 mb 0.00 in0.0 mm 0.00 in0.0 mm 0.00 in0.0 mm
06:27 AM 63.6°F17.6°C 57.0°F13.9°C 79% Calm Calm 2.0 mph3.2 kmh 30.14 in1020.7 mb 0.00 in0.0 mm 0.00 in0.0 mm 0.00 in0.0 mm
06:32 AM 63.6°F17.6°C 57.0°F13.9°C 79% Calm Calm 2.0 mph3.2 kmh 30.14 in1020.7 mb 0.00 in0.0 mm 0.00 in0.0 mm 0.00 in0.0 mm
06:37 AM 63.4°F17.4°C 57.2°F14.0°C 80% Calm Calm 1.0 mph1.6 kmh 30.14 in1020.7 mb 0.00 in0.0 mm 0.00 in0.0 mm 0.00 in0.0 mm
06:41 AM 63.1°F17.3°C 57.2°F14.0°C 81% 1.0 mph WNW1.6 kmh WNW 1.0 mph1.6 kmh 30.15 in1021.0 mb 0.00 in0.0 mm 0.00 in0.0 mm 0.00 in0.0 mm
06:47 AM 62.9°F17.2°C 57.4°F14.1°C 82% Calm Calm 1.0 mph1.6 kmh 30.15 in1021.0 mb 0.00 in0.0 mm 0.00 in0.0 mm 0.00 in0.0 mm
06:52 AM 62.6°F17.0°C 57.4°F14.1°C 83% Calm Calm 1.0 mph1.6 kmh 30.15 in1021.0 mb 0.00 in0.0 mm 0.00 in0.0 mm 0.00 in0.0 mm
06:56 AM 62.6°F17.0°C 57.4°F14.1°C 83% Calm Calm 1.0 mph1.6 kmh 30.16 in1021.3 mb 0.00 in0.0 mm 0.00 in0.0 mm 0.00 in0.0 mm
07:02 AM 62.6°F17.0°C 57.4°F14.1°C 83% Calm Calm 1.0 mph1.6 kmh 30.16 in1021.3 mb 0.00 in0.0 mm 0.00 in0.0 mm 0.00 in0.0 mm
07:07 AM 62.9°F17.2°C 57.7°F14.3°C 83% Calm Calm -- 30.16 in1021.3 mb 0.00 in0.0 mm 0.00 in0.0 mm 0.00 in0.0 mm
07:12 AM 63.2°F17.3°C 57.9°F14.4°C 83% Calm Calm -- 30.16 in1021.3 mb 0.00 in0.0 mm 0.00 in0.0 mm 0.00 in0.0 mm
07:17 AM 63.7°F17.6°C 58.1°F14.5°C 82% Calm Calm 1.0 mph1.6 kmh 30.16 in1021.3 mb 0.00 in0.0 mm 0.00 in0.0 mm 0.00 in0.0 mm
07:22 AM 64.3°F17.9°C 58.0°F14.4°C 80% Calm Calm 1.0 mph1.6 kmh 30.16 in1021.3 mb 0.00 in0.0 mm 0.00 in0.0 mm 0.00 in0.0 mm
07:27 AM 65.2°F18.4°C 59.3°F15.2°C 81% 1.0 mph WNW1.6 kmh WNW 1.0 mph1.6 kmh 30.16 in1021.3 mb 0.00 in0.0 mm 0.00 in0.0 mm 0.00 in0.0 mm
07:32 AM 65.5°F18.6°C 58.9°F14.9°C 79% 1.0 mph NE1.6 kmh NE 1.0 mph1.6 kmh 30.17 in1021.7 mb 0.00 in0.0 mm 0.00 in0.0 mm 0.00 in0.0 mm
07:37 AM 66.0°F18.9°C 59.0°F15.0°C 78% Calm Calm 1.0 mph1.6 kmh 30.17 in1021.7 mb 0.00 in0.0 mm 0.00 in0.0 mm 0.00 in0.0 mm
07:42 AM 66.5°F19.2°C 59.2°F15.1°C 77% Calm Calm 1.0 mph1.6 kmh 30.17 in1021.7 mb 0.00 in0.0 mm 0.00 in0.0 mm 0.00 in0.0 mm
07:47 AM 67.2°F19.6°C 59.5°F15.3°C 76% 1.0 mph NE1.6 kmh NE 1.0 mph1.6 kmh 30.17 in1021.7 mb 0.00 in0.0 mm 0.00 in0.0 mm 0.00 in0.0 mm
07:50 AM 67.6°F19.8°C 60.2°F15.7°C 77% 1.0 mph NNE1.6 kmh NNE 1.0 mph1.6 kmh 30.17 in1021.7 mb 0.00 in0.0 mm 0.00 in0.0 mm 0.00 in0.0 mm
07:55 AM 67.9°F19.9°C 60.9°F16.1°C 78% 1.6 mph NE2.6 kmh NE 2.0 mph3.2 kmh 30.17 in1021.7 mb 0.00 in0.0 mm 0.00 in0.0 mm 0.00 in0.0 mm
08:01 AM 68.2°F20.1°C 61.2°F16.2°C 78% 1.6 mph NE2.6 kmh NE 2.0 mph3.2 kmh 30.17 in1021.7 mb 0.00 in0.0 mm 0.00 in0.0 mm 0.00 in0.0 mm
08:05 AM 68.2°F20.1°C 61.5°F16.4°C 79% 2.6 mph NE4.2 kmh NE 4.0 mph6.4 kmh 30.17 in1021.7 mb 0.00 in0.0 mm 0.00 in0.0 mm 0.00 in0.0 mm
08:10 AM 68.4°F20.2°C 62.1°F16.7°C 80% 1.4 mph NE2.3 kmh NE 4.0 mph6.4 kmh 30.17 in1021.7 mb 0.00 in0.0 mm 0.00 in0.0 mm 0.00 in0.0 mm
08:16 AM 68.3°F20.2°C 62.0°F16.7°C 80% 2.3 mph NE3.7 kmh NE 5.0 mph8.0 kmh 30.17 in1021.7 mb 0.00 in0.0 mm 0.00 in0.0 mm 0.00 in0.0 mm
08:21 AM 68.4°F20.2°C 61.7°F16.5°C 79% 3.2 mph ENE5.1 kmh ENE 5.0 mph8.0 kmh 30.17 in1021.7 mb 0.00 in0.0 mm 0.00 in0.0 mm 0.00 in0.0 mm
08:25 AM 68.7°F20.4°C 61.7°F16.5°C 78% 2.5 mph NE4.0 kmh NE 5.0 mph8.0 kmh 30.17 in1021.7 mb 0.00 in0.0 mm 0.00 in0.0 mm 0.00 in0.0 mm
08:30 AM 69.1°F20.6°C 61.0°F16.1°C 75% 2.8 mph NE4.5 kmh NE 5.0 mph8.0 kmh 30.17 in1021.7 mb 0.00 in0.0 mm 0.00 in0.0 mm 0.00 in0.0 mm
08:35 AM 70.1°F21.2°C 62.3°F16.8°C 76% 1.0 mph NNE1.6 kmh NNE 5.0 mph8.0 kmh 30.16 in1021.3 mb 0.00 in0.0 mm 0.00 in0.0 mm 0.00 in0.0 mm
08:40 AM 70.9°F21.6°C 60.8°F16.0°C 70% 2.0 mph NE3.2 kmh NE 5.0 mph8.0 kmh 30.16 in1021.3 mb 0.00 in0.0 mm 0.00 in0.0 mm 0.00 in0.0 mm
08:46 AM 71.3°F21.8°C 60.8°F16.0°C 69% 2.3 mph NE3.7 kmh NE 5.0 mph8.0 kmh 30.17 in1021.7 mb 0.00 in0.0 mm 0.00 in0.0 mm 0.00 in0.0 mm
08:51 AM 71.7°F22.1°C 59.9°F15.5°C 66% 2.5 mph NE4.0 kmh NE 4.0 mph6.4 kmh 30.17 in1021.7 mb 0.00 in0.0 mm 0.00 in0.0 mm 0.00 in0.0 mm
08:56 AM 71.9°F22.2°C 60.1°F15.6°C 66% 2.6 mph NE4.2 kmh NE 4.0 mph6.4 kmh 30.17 in1021.7 mb 0.00 in0.0 mm 0.00 in0.0 mm 0.00 in0.0 mm
09:01 AM 72.4°F22.4°C 61.0°F16.1°C 67% 1.2 mph ENE1.9 kmh ENE 4.0 mph6.4 kmh 30.17 in1021.7 mb 0.00 in0.0 mm 0.00 in0.0 mm 0.00 in0.0 mm
09:06 AM 73.2°F22.9°C 60.5°F15.8°C 64% 1.0 mph NE1.6 kmh NE 4.0 mph6.4 kmh 30.17 in1021.7 mb 0.00 in0.0 mm 0.00 in0.0 mm 0.00 in0.0 mm
09:11 AM 74.0°F23.3°C 62.6°F17.0°C 67% 1.0 mph NE1.6 kmh NE 4.0 mph6.4 kmh 30.17 in1021.7 mb 0.00 in0.0 mm 0.00 in0.0 mm 0.00 in0.0 mm
09:16 AM 74.9°F23.8°C 60.8°F16.0°C 61% 1.0 mph N1.6 kmh N 3.0 mph4.8 kmh 30.17 in1021.7 mb 0.00 in0.0 mm 0.00 in0.0 mm 0.00 in0.0 mm
09:21 AM 75.3°F24.1°C 60.7°F15.9°C 60% 1.6 mph NNE2.6 kmh NNE 3.0 mph4.8 kmh 30.17 in1021.7 mb 0.00 in0.0 mm 0.00 in0.0 mm 0.00 in0.0 mm
09:26 AM 75.7°F24.3°C 60.6°F15.9°C 59% 1.3 mph NE2.1 kmh NE 3.0 mph4.8 kmh 30.17 in1021.7 mb 0.00 in0.0 mm 0.00 in0.0 mm 0.00 in0.0 mm
09:31 AM 76.4°F24.7°C 61.7°F16.5°C 60% 1.5 mph NE2.4 kmh NE 3.0 mph4.8 kmh 30.17 in1021.7 mb 0.00 in0.0 mm 0.00 in0.0 mm 0.00 in0.0 mm
09:36 AM 76.3°F24.6°C 59.1°F15.1°C 55% 2.3 mph NE3.7 kmh NE 4.0 mph6.4 kmh 30.17 in1021.7 mb 0.00 in0.0 mm 0.00 in0.0 mm 0.00 in0.0 mm
09:41 AM 76.6°F24.8°C 61.2°F16.2°C 59% 2.0 mph NE3.2 kmh NE 4.0 mph6.4 kmh 30.17 in1021.7 mb 0.00 in0.0 mm 0.00 in0.0 mm 0.00 in0.0 mm
09:46 AM 77.1°F25.1°C 61.2°F16.2°C 58% 1.7 mph NE2.7 kmh NE 4.0 mph6.4 kmh 30.18 in1022.0 mb 0.00 in0.0 mm 0.00 in0.0 mm 0.00 in0.0 mm
09:51 AM 77.1°F25.1°C 60.9°F16.1°C 57% 3.4 mph NE5.5 kmh NE 5.0 mph8.0 kmh 30.18 in1022.0 mb 0.00 in0.0 mm 0.00 in0.0 mm 0.00 in0.0 mm
09:56 AM 76.8°F24.9°C 62.1°F16.7°C 60% 2.5 mph E4.0 kmh E 5.0 mph8.0 kmh 30.18 in1022.0 mb 0.00 in0.0 mm 0.00 in0.0 mm 0.00 in0.0 mm
10:01 AM 77.3°F25.2°C 63.0°F17.2°C 61% 1.8 mph NE2.9 kmh NE 5.0 mph8.0 kmh 30.18 in1022.0 mb 0.00 in0.0 mm 0.00 in0.0 mm 0.00 in0.0 mm
10:06 AM 77.1°F25.1°C 61.9°F16.6°C 59% 3.3 mph NE5.3 kmh NE 5.0 mph8.0 kmh 30.18 in1022.0 mb 0.00 in0.0 mm 0.00 in0.0 mm 0.00 in0.0 mm
10:11 AM 77.5°F25.3°C 62.3°F16.8°C 59% 2.3 mph NE3.7 kmh NE 5.0 mph8.0 kmh 30.18 in1022.0 mb 0.00 in0.0 mm 0.00 in0.0 mm 0.00 in0.0 mm
10:16 AM 77.6°F25.3°C 62.3°F16.8°C 59% 2.7 mph NE4.3 kmh NE 5.0 mph8.0 kmh 30.18 in1022.0 mb 0.00 in0.0 mm 0.00 in0.0 mm 0.00 in0.0 mm
10:21 AM 77.2°F25.1°C 62.0°F16.7°C 59% 3.3 mph ENE5.3 kmh ENE 7.0 mph11.3 kmh 30.18 in1022.0 mb 0.00 in0.0 mm 0.00 in0.0 mm 0.00 in0.0 mm
10:26 AM 77.0°F25.0°C 62.3°F16.8°C 60% 2.9 mph NNE4.7 kmh NNE 7.0 mph11.3 kmh 30.19 in1022.4 mb 0.00 in0.0 mm 0.00 in0.0 mm 0.00 in0.0 mm
10:31 AM 77.3°F25.2°C 61.9°F16.6°C 59% 3.0 mph N4.8 kmh N 7.0 mph11.3 kmh 30.19 in1022.4 mb 0.00 in0.0 mm 0.00 in0.0 mm 0.00 in0.0 mm
10:36 AM 77.4°F25.2°C 61.9°F16.6°C 59% 2.7 mph NE4.3 kmh NE 7.0 mph11.3 kmh 30.19 in1022.4 mb 0.00 in0.0 mm 0.00 in0.0 mm 0.00 in0.0 mm
10:41 AM 78.1°F25.6°C 63.3°F17.4°C 60% 2.2 mph ENE3.5 kmh ENE 7.0 mph11.3 kmh 30.19 in1022.4 mb 0.00 in0.0 mm 0.00 in0.0 mm 0.00 in0.0 mm
10:46 AM 78.2°F25.7°C 61.9°F16.6°C 57% 2.6 mph E4.2 kmh E 7.0 mph11.3 kmh 30.19 in1022.4 mb 0.00 in0.0 mm 0.00 in0.0 mm 0.00 in0.0 mm
10:51 AM 78.5°F25.8°C 62.7°F17.1°C 58% 3.0 mph E4.8 kmh E 7.0 mph11.3 kmh 30.19 in1022.4 mb 0.00 in0.0 mm 0.00 in0.0 mm 0.00 in0.0 mm
10:56 AM 78.1°F25.6°C 61.8°F16.6°C 57% 2.3 mph E3.7 kmh E 6.0 mph9.7 kmh 30.19 in1022.4 mb 0.00 in0.0 mm 0.00 in0.0 mm 0.00 in0.0 mm
11:01 AM 78.4°F25.8°C 62.1°F16.7°C 57% 2.9 mph E4.7 kmh E 6.0 mph9.7 kmh 30.19 in1022.4 mb 0.00 in0.0 mm 0.00 in0.0 mm 0.00 in0.0 mm
11:06 AM 78.6°F25.9°C 60.7°F15.9°C 54% 2.7 mph NE4.3 kmh NE 6.0 mph9.7 kmh 30.19 in1022.4 mb 0.00 in0.0 mm 0.00 in0.0 mm 0.00 in0.0 mm
11:11 AM 79.0°F26.1°C 62.5°F16.9°C 57% 3.6 mph NE5.8 kmh NE 7.0 mph11.3 kmh 30.19 in1022.4 mb 0.00 in0.0 mm 0.00 in0.0 mm 0.00 in0.0 mm
11:16 AM 79.2°F26.2°C 62.3°F16.8°C 56% 4.3 mph E6.9 kmh E 7.0 mph11.3 kmh 30.19 in1022.4 mb 0.00 in0.0 mm 0.00 in0.0 mm 0.00 in0.0 mm
11:21 AM 79.0°F26.1°C 62.2°F16.8°C 56% 2.4 mph ENE3.9 kmh ENE 7.0 mph11.3 kmh 30.19 in1022.4 mb 0.00 in0.0 mm 0.00 in0.0 mm 0.00 in0.0 mm
11:26 AM 79.7°F26.5°C 63.3°F17.4°C 57% 2.2 mph ENE3.5 kmh ENE 7.0 mph11.3 kmh 30.19 in1022.4 mb 0.00 in0.0 mm 0.00 in0.0 mm 0.00 in0.0 mm
11:31 AM 79.8°F26.6°C 62.7°F17.1°C 56% 1.2 mph N1.9 kmh N 7.0 mph11.3 kmh 30.19 in1022.4 mb 0.00 in0.0 mm 0.00 in0.0 mm 0.00 in0.0 mm
11:36 AM 79.9°F26.6°C 62.8°F17.1°C 56% 4.3 mph NE6.9 kmh NE 8.0 mph12.9 kmh 30.19 in1022.4 mb 0.00 in0.0 mm 0.00 in0.0 mm 0.00 in0.0 mm
11:41 AM 79.8°F26.6°C 62.9°F17.2°C 56% 2.2 mph N3.5 kmh N 10.0 mph16.1 kmh 30.19 in1022.4 mb 0.00 in0.0 mm 0.00 in0.0 mm 0.00 in0.0 mm
11:46 AM 79.8°F26.6°C 62.4°F16.9°C 55% 1.6 mph NE2.6 kmh NE 10.0 mph16.1 kmh 30.19 in1022.4 mb 0.00 in0.0 mm 0.00 in0.0 mm 0.00 in0.0 mm
11:51 AM 80.5°F26.9°C 63.0°F17.2°C 55% 1.1 mph ESE1.8 kmh ESE 10.0 mph16.1 kmh 30.19 in1022.4 mb 0.00 in0.0 mm 0.00 in0.0 mm 0.00 in0.0 mm
11:56 AM 81.1°F27.3°C 63.1°F17.3°C 54% 1.0 mph E1.6 kmh E 6.0 mph9.7 kmh 30.19 in1022.4 mb 0.00 in0.0 mm 0.00 in0.0 mm 0.00 in0.0 mm
12:01 PM 81.6°F27.6°C 63.5°F17.5°C 54% 1.1 mph SSW1.8 kmh SSW 6.0 mph9.7 kmh 30.18 in1022.0 mb 0.00 in0.0 mm 0.00 in0.0 mm 0.00 in0.0 mm
12:06 PM 81.4°F27.4°C 62.2°F16.8°C 52% 2.5 mph WSW4.0 kmh WSW 6.0 mph9.7 kmh 30.18 in1022.0 mb 0.00 in0.0 mm 0.00 in0.0 mm 0.00 in0.0 mm
12:11 PM 81.3°F27.4°C 62.7°F17.1°C 53% 1.7 mph E2.7 kmh E 6.0 mph9.7 kmh 30.18 in1022.0 mb 0.00 in0.0 mm 0.00 in0.0 mm 0.00 in0.0 mm
12:16 PM 81.5°F27.5°C 63.8°F17.7°C 55% 1.4 mph SW2.3 kmh SW 6.0 mph9.7 kmh 30.18 in1022.0 mb 0.00 in0.0 mm 0.00 in0.0 mm 0.00 in0.0 mm
12:21 PM 82.1°F27.8°C 63.4°F17.4°C 53% 1.2 mph SSE1.9 kmh SSE 6.0 mph9.7 kmh 30.18 in1022.0 mb 0.00 in0.0 mm 0.00 in0.0 mm 0.00 in0.0 mm
12:26 PM 82.2°F27.9°C 64.1°F17.8°C 54% 1.0 mph WSW1.6 kmh WSW 3.0 mph4.8 kmh 30.18 in1022.0 mb 0.00 in0.0 mm 0.00 in0.0 mm 0.00 in0.0 mm
12:31 PM 82.0°F27.8°C 62.8°F17.1°C 52% 3.0 mph SW4.8 kmh SW 5.0 mph8.0 kmh 30.18 in1022.0 mb 0.00 in0.0 mm 0.00 in0.0 mm 0.00 in0.0 mm
12:36 PM 81.4°F27.4°C 63.3°F17.4°C 54% 2.0 mph N3.2 kmh N 6.0 mph9.7 kmh 30.18 in1022.0 mb 0.00 in0.0 mm 0.00 in0.0 mm 0.00 in0.0 mm
12:41 PM 81.8°F27.7°C 63.7°F17.6°C 54% 1.0 mph ESE1.6 kmh ESE 6.0 mph9.7 kmh 30.17 in1021.7 mb 0.00 in0.0 mm 0.00 in0.0 mm 0.00 in0.0 mm
12:46 PM 82.2°F27.9°C 62.4°F16.9°C 51% 2.0 mph WSW3.2 kmh WSW 6.0 mph9.7 kmh 30.17 in1021.7 mb 0.00 in0.0 mm 0.00 in0.0 mm 0.00 in0.0 mm
12:50 PM 82.4°F28.0°C 63.2°F17.3°C 52% 1.5 mph SSE2.4 kmh SSE 6.0 mph9.7 kmh 30.17 in1021.7 mb 0.00 in0.0 mm 0.00 in0.0 mm 0.00 in0.0 mm
12:55 PM 82.7°F28.2°C 62.3°F16.8°C 50% 1.6 mph SSE2.6 kmh SSE 4.0 mph6.4 kmh 30.16 in1021.3 mb 0.00 in0.0 mm 0.00 in0.0 mm 0.00 in0.0 mm
01:00 PM 82.4°F28.0°C 62.0°F16.7°C 50% 1.6 mph NE2.6 kmh NE 5.0 mph8.0 kmh 30.16 in1021.3 mb 0.00 in0.0 mm 0.00 in0.0 mm 0.00 in0.0 mm
01:05 PM 82.4°F28.0°C 61.3°F16.3°C 49% 2.5 mph ENE4.0 kmh ENE 5.0 mph8.0 kmh 30.16 in1021.3 mb 0.00 in0.0 mm 0.00 in0.0 mm 0.00 in0.0 mm
01:10 PM 83.2°F28.4°C 62.8°F17.1°C 50% 2.2 mph SSW3.5 kmh SSW 6.0 mph9.7 kmh 30.16 in1021.3 mb 0.00 in0.0 mm 0.00 in0.0 mm 0.00 in0.0 mm
01:15 PM 83.7°F28.7°C 62.6°F17.0°C 49% 1.0 mph NNE1.6 kmh NNE 6.0 mph9.7 kmh 30.16 in1021.3 mb 0.00 in0.0 mm 0.00 in0.0 mm 0.00 in0.0 mm
01:20 PM 84.0°F28.9°C 60.4°F15.8°C 45% 4.1 mph SW6.6 kmh SW 7.0 mph11.3 kmh 30.16 in1021.3 mb 0.00 in0.0 mm 0.00 in0.0 mm 0.00 in0.0 mm
01:25 PM 83.7°F28.7°C 61.9°F16.6°C 48% 2.4 mph SE3.9 kmh SE 7.0 mph11.3 kmh 30.16 in1021.3 mb 0.00 in0.0 mm 0.00 in0.0 mm 0.00 in0.0 mm
01:30 PM 83.7°F28.7°C 62.0°F16.7°C 48% 1.0 mph SW1.6 kmh SW 7.0 mph11.3 kmh 30.16 in1021.3 mb 0.00 in0.0 mm 0.00 in0.0 mm 0.00 in0.0 mm
01:35 PM 84.0°F28.9°C 60.4°F15.8°C 45% 1.5 mph SSE2.4 kmh SSE 7.0 mph11.3 kmh 30.16 in1021.3 mb 0.00 in0.0 mm 0.00 in0.0 mm 0.00 in0.0 mm
01:40 PM 83.9°F28.8°C 59.7°F15.4°C 44% 2.4 mph W3.9 kmh W 6.0 mph9.7 kmh 30.16 in1021.3 mb 0.00 in0.0 mm 0.00 in0.0 mm 0.00 in0.0 mm
01:45 PM 83.7°F28.7°C 61.4°F16.3°C 47% 3.3 mph S5.3 kmh S 9.0 mph14.5 kmh 30.15 in1021.0 mb 0.00 in0.0 mm 0.00 in0.0 mm 0.00 in0.0 mm
01:50 PM 84.6°F29.2°C 61.5°F16.4°C 46% 1.0 mph SSE1.6 kmh SSE 9.0 mph14.5 kmh 30.15 in1021.0 mb 0.00 in0.0 mm 0.00 in0.0 mm 0.00 in0.0 mm
01:55 PM 84.8°F29.3°C 61.8°F16.6°C 46% 3.3 mph SSW5.3 kmh SSW 10.0 mph16.1 kmh 30.16 in1021.3 mb 0.00 in0.0 mm 0.00 in0.0 mm 0.00 in0.0 mm
02:00 PM 84.5°F29.2°C 61.5°F16.4°C 46% 2.6 mph SW4.2 kmh SW 10.0 mph16.1 kmh 30.16 in1021.3 mb 0.00 in0.0 mm 0.00 in0.0 mm 0.00 in0.0 mm
02:05 PM 84.2°F29.0°C 59.3°F15.2°C 43% 4.3 mph ESE6.9 kmh ESE 10.0 mph16.1 kmh 30.15 in1021.0 mb 0.00 in0.0 mm 0.00 in0.0 mm 0.00 in0.0 mm
02:10 PM 83.6°F28.7°C 59.4°F15.2°C 44% 3.1 mph SE5.0 kmh SE 10.0 mph16.1 kmh 30.16 in1021.3 mb 0.00 in0.0 mm 0.00 in0.0 mm 0.00 in0.0 mm
02:15 PM 83.6°F28.7°C 60.7°F15.9°C 46% 2.6 mph SE4.2 kmh SE 9.0 mph14.5 kmh 30.15 in1021.0 mb 0.00 in0.0 mm 0.00 in0.0 mm 0.00 in0.0 mm
02:20 PM 83.8°F28.8°C 61.5°F16.4°C 47% 4.6 mph SE7.4 kmh SE 11.0 mph17.7 kmh 30.15 in1021.0 mb 0.00 in0.0 mm 0.00 in0.0 mm 0.00 in0.0 mm
02:25 PM 84.5°F29.2°C 61.5°F16.4°C 46% 2.0 mph SW3.2 kmh SW 11.0 mph17.7 kmh 30.15 in1021.0 mb 0.00 in0.0 mm 0.00 in0.0 mm 0.00 in0.0 mm
02:30 PM 85.3°F29.6°C 62.8°F17.1°C 47% Calm Calm 11.0 mph17.7 kmh 30.15 in1021.0 mb 0.00 in0.0 mm 0.00 in0.0 mm 0.00 in0.0 mm
02:35 PM 84.9°F29.4°C 61.2°F16.2°C 45% 3.1 mph SW5.0 kmh SW 11.0 mph17.7 kmh 30.15 in1021.0 mb 0.00 in0.0 mm 0.00 in0.0 mm 0.00 in0.0 mm
02:40 PM 84.8°F29.3°C 61.1°F16.2°C 45% 1.4 mph SW2.3 kmh SW 11.0 mph17.7 kmh 30.15 in1021.0 mb 0.00 in0.0 mm 0.00 in0.0 mm 0.00 in0.0 mm
02:45 PM 85.1°F29.5°C 60.1°F15.6°C 43% 1.8 mph S2.9 kmh S 11.0 mph17.7 kmh 30.14 in1020.7 mb 0.00 in0.0 mm 0.00 in0.0 mm 0.00 in0.0 mm
02:50 PM 84.9°F29.4°C 60.6°F15.9°C 44% 5.4 mph ESE8.7 kmh ESE 11.0 mph17.7 kmh 30.14 in1020.7 mb 0.00 in0.0 mm 0.00 in0.0 mm 0.00 in0.0 mm
02:55 PM 83.8°F28.8°C 60.9°F16.1°C 46% 2.1 mph SSE3.4 kmh SSE 8.0 mph12.9 kmh 30.14 in1020.7 mb 0.00 in0.0 mm 0.00 in0.0 mm 0.00 in0.0 mm
03:00 PM 84.2°F29.0°C 61.2°F16.2°C 46% 3.0 mph SSW4.8 kmh SSW 8.0 mph12.9 kmh 30.14 in1020.7 mb 0.00 in0.0 mm 0.00 in0.0 mm 0.00 in0.0 mm
03:05 PM 84.6°F29.2°C 60.3°F15.7°C 44% 3.1 mph SSE5.0 kmh SSE 8.0 mph12.9 kmh 30.14 in1020.7 mb 0.00 in0.0 mm 0.00 in0.0 mm 0.00 in0.0 mm
03:10 PM 84.2°F29.0°C 60.6°F15.9°C 45% 5.1 mph ESE8.2 kmh ESE 10.0 mph16.1 kmh 30.14 in1020.7 mb 0.00 in0.0 mm 0.00 in0.0 mm 0.00 in0.0 mm
03:15 PM 84.3°F29.1°C 60.0°F15.6°C 44% 3.3 mph ESE5.3 kmh ESE 10.0 mph16.1 kmh 30.14 in1020.7 mb 0.00 in0.0 mm 0.00 in0.0 mm 0.00 in0.0 mm
03:20 PM 83.8°F28.8°C 60.2°F15.7°C 45% 4.5 mph SE7.2 kmh SE 10.0 mph16.1 kmh 30.14 in1020.7 mb 0.00 in0.0 mm 0.00 in0.0 mm 0.00 in0.0 mm
03:25 PM 84.0°F28.9°C 60.4°F15.8°C 45% 3.1 mph SE5.0 kmh SE 10.0 mph16.1 kmh 30.14 in1020.7 mb 0.00 in0.0 mm 0.00 in0.0 mm 0.00 in0.0 mm
03:30 PM 84.7°F29.3°C 62.2°F16.8°C 47% 1.0 mph SW1.6 kmh SW 10.0 mph16.1 kmh 30.14 in1020.7 mb 0.00 in0.0 mm 0.00 in0.0 mm 0.00 in0.0 mm
03:35 PM 85.4°F29.7°C 61.0°F16.1°C 44% 2.2 mph SSE3.5 kmh SSE 10.0 mph16.1 kmh 30.14 in1020.7 mb 0.00 in0.0 mm 0.00 in0.0 mm 0.00 in0.0 mm
03:40 PM 85.6°F29.8°C 59.9°F15.5°C 42% 2.1 mph S3.4 kmh S 6.0 mph9.7 kmh 30.14 in1020.7 mb 0.00 in0.0 mm 0.00 in0.0 mm 0.00 in0.0 mm
03:45 PM 85.1°F29.5°C 59.4°F15.2°C 42% 3.2 mph SSE5.1 kmh SSE 9.0 mph14.5 kmh 30.14 in1020.7 mb 0.00 in0.0 mm 0.00 in0.0 mm 0.00 in0.0 mm
03:50 PM 84.8°F29.3°C 59.8°F15.4°C 43% 2.5 mph SSE4.0 kmh SSE 9.0 mph14.5 kmh 30.14 in1020.7 mb 0.00 in0.0 mm 0.00 in0.0 mm 0.00 in0.0 mm
03:55 PM 84.7°F29.3°C 59.7°F15.4°C 43% 3.2 mph SE5.1 kmh SE 9.0 mph14.5 kmh 30.13 in1020.3 mb 0.00 in0.0 mm 0.00 in0.0 mm 0.00 in0.0 mm
04:00 PM 84.5°F29.2°C 58.9°F14.9°C 42% 4.0 mph SE6.4 kmh SE 9.0 mph14.5 kmh 30.13 in1020.3 mb 0.00 in0.0 mm 0.00 in0.0 mm 0.00 in0.0 mm
04:05 PM 84.5°F29.2°C 59.5°F15.3°C 43% 1.7 mph SSE2.7 kmh SSE 8.0 mph12.9 kmh 30.13 in1020.3 mb 0.00 in0.0 mm 0.00 in0.0 mm 0.00 in0.0 mm
04:10 PM 84.5°F29.2°C 58.2°F14.6°C 41% 2.2 mph S3.5 kmh S 8.0 mph12.9 kmh 30.14 in1020.7 mb 0.00 in0.0 mm 0.00 in0.0 mm 0.00 in0.0 mm
04:15 PM 84.5°F29.2°C 58.9°F14.9°C 42% 2.0 mph WSW3.2 kmh WSW 8.0 mph12.9 kmh 30.14 in1020.7 mb 0.00 in0.0 mm 0.00 in0.0 mm 0.00 in0.0 mm
04:20 PM 84.5°F29.2°C 58.9°F14.9°C 42% 3.3 mph SE5.3 kmh SE 9.0 mph14.5 kmh 30.14 in1020.7 mb 0.00 in0.0 mm 0.00 in0.0 mm 0.00 in0.0 mm
04:25 PM 84.4°F29.1°C 57.4°F14.1°C 40% 3.0 mph SE4.8 kmh SE 9.0 mph14.5 kmh 30.14 in1020.7 mb 0.00 in0.0 mm 0.00 in0.0 mm 0.00 in0.0 mm
04:30 PM 84.1°F28.9°C 57.8°F14.3°C 41% 2.4 mph SE3.9 kmh SE 9.0 mph14.5 kmh 30.14 in1020.7 mb 0.00 in0.0 mm 0.00 in0.0 mm 0.00 in0.0 mm
04:35 PM 84.1°F28.9°C 58.5°F14.7°C 42% 2.8 mph SE4.5 kmh SE 9.0 mph14.5 kmh 30.14 in1020.7 mb 0.00 in0.0 mm 0.00 in0.0 mm 0.00 in0.0 mm
04:40 PM 84.1°F28.9°C 59.2°F15.1°C 43% 2.3 mph S3.7 kmh S 6.0 mph9.7 kmh 30.14 in1020.7 mb 0.00 in0.0 mm 0.00 in0.0 mm 0.00 in0.0 mm
04:45 PM 84.7°F29.3°C 59.7°F15.4°C 43% 1.7 mph SW2.7 kmh SW 6.0 mph9.7 kmh 30.14 in1020.7 mb 0.00 in0.0 mm 0.00 in0.0 mm 0.00 in0.0 mm
04:50 PM 85.2°F29.6°C 58.8°F14.9°C 41% 1.6 mph SSW2.6 kmh SSW 6.0 mph9.7 kmh 30.14 in1020.7 mb 0.00 in0.0 mm 0.00 in0.0 mm 0.00 in0.0 mm
04:55 PM 85.1°F29.5°C 58.7°F14.8°C 41% 2.6 mph SE4.2 kmh SE 5.0 mph8.0 kmh 30.14 in1020.7 mb 0.00 in0.0 mm 0.00 in0.0 mm 0.00 in0.0 mm
05:00 PM 84.9°F29.4°C 57.8°F14.3°C 40% 3.7 mph SE6.0 kmh SE 8.0 mph12.9 kmh 30.14 in1020.7 mb 0.00 in0.0 mm 0.00 in0.0 mm 0.00 in0.0 mm
05:05 PM 84.8°F29.3°C 57.7°F14.3°C 40% 1.1 mph S1.8 kmh S 8.0 mph12.9 kmh 30.14 in1020.7 mb 0.00 in0.0 mm 0.00 in0.0 mm 0.00 in0.0 mm
05:10 PM 84.8°F29.3°C 57.7°F14.3°C 40% 1.2 mph SSE1.9 kmh SSE 8.0 mph12.9 kmh 30.14 in1020.7 mb 0.00 in0.0 mm 0.00 in0.0 mm 0.00 in0.0 mm
05:15 PM 85.0°F29.4°C 58.6°F14.8°C 41% 1.7 mph SSW2.7 kmh SSW 8.0 mph12.9 kmh 30.14 in1020.7 mb 0.00 in0.0 mm 0.00 in0.0 mm 0.00 in0.0 mm
05:20 PM 85.2°F29.6°C 58.8°F14.9°C 41% 1.4 mph SSW2.3 kmh SSW 5.0 mph8.0 kmh 30.14 in1020.7 mb 0.00 in0.0 mm 0.00 in0.0 mm 0.00 in0.0 mm
05:25 PM 85.2°F29.6°C 58.1°F14.5°C 40% 1.9 mph SE3.1 kmh SE 5.0 mph8.0 kmh 30.14 in1020.7 mb 0.00 in0.0 mm 0.00 in0.0 mm 0.00 in0.0 mm
05:30 PM 85.0°F29.4°C 58.7°F14.8°C 41% 2.0 mph SE3.2 kmh SE 5.0 mph8.0 kmh 30.14 in1020.7 mb 0.00 in0.0 mm 0.00 in0.0 mm 0.00 in0.0 mm
05:35 PM 84.7°F29.3°C 57.7°F14.3°C 40% 2.1 mph SE3.4 kmh SE 6.0 mph9.7 kmh 30.14 in1020.7 mb 0.00 in0.0 mm 0.00 in0.0 mm 0.00 in0.0 mm
05:40 PM 84.9°F29.4°C 57.8°F14.3°C 40% 1.0 mph SE1.6 kmh SE 6.0 mph9.7 kmh 30.14 in1020.7 mb 0.00 in0.0 mm 0.00 in0.0 mm 0.00 in0.0 mm
05:45 PM 85.2°F29.6°C 58.8°F14.9°C 41% Calm Calm 6.0 mph9.7 kmh 30.14 in1020.7 mb 0.00 in0.0 mm 0.00 in0.0 mm 0.00 in0.0 mm
05:49 PM 84.9°F29.4°C 57.8°F14.3°C 40% 1.4 mph SE2.3 kmh SE 6.0 mph9.7 kmh 30.14 in1020.7 mb 0.00 in0.0 mm 0.00 in0.0 mm 0.00 in0.0 mm
05:54 PM 85.0°F29.4°C 58.6°F14.8°C 41% 1.0 mph SW1.6 kmh SW 3.0 mph4.8 kmh 30.14 in1020.7 mb 0.00 in0.0 mm 0.00 in0.0 mm 0.00 in0.0 mm
05:59 PM 84.7°F29.3°C 58.4°F14.7°C 41% 1.4 mph SE2.3 kmh SE 3.0 mph4.8 kmh 30.14 in1020.7 mb 0.00 in0.0 mm 0.00 in0.0 mm 0.00 in0.0 mm
06:04 PM 84.7°F29.3°C 59.1°F15.1°C 42% Calm Calm 3.0 mph4.8 kmh 30.14 in1020.7 mb 0.00 in0.0 mm 0.00 in0.0 mm 0.00 in0.0 mm
06:09 PM 84.4°F29.1°C 58.1°F14.5°C 41% 1.6 mph SE2.6 kmh SE 3.0 mph4.8 kmh 30.14 in1020.7 mb 0.00 in0.0 mm 0.00 in0.0 mm 0.00 in0.0 mm
06:14 PM 83.9°F28.8°C 58.3°F14.6°C 42% 1.1 mph SE1.8 kmh SE 3.0 mph4.8 kmh 30.14 in1020.7 mb 0.00 in0.0 mm 0.00 in0.0 mm 0.00 in0.0 mm
06:19 PM 83.3°F28.5°C 58.5°F14.7°C 43% 1.0 mph SSE1.6 kmh SSE 3.0 mph4.8 kmh 30.14 in1020.7 mb 0.00 in0.0 mm 0.00 in0.0 mm 0.00 in0.0 mm
06:24 PM 83.0°F28.3°C 58.2°F14.6°C 43% 1.0 mph SSE1.6 kmh SSE 3.0 mph4.8 kmh 30.14 in1020.7 mb 0.00 in0.0 mm 0.00 in0.0 mm 0.00 in0.0 mm
06:29 PM 82.7°F28.2°C 57.9°F14.4°C 43% 1.0 mph SE1.6 kmh SE 3.0 mph4.8 kmh 30.14 in1020.7 mb 0.00 in0.0 mm 0.00 in0.0 mm 0.00 in0.0 mm
06:34 PM 82.5°F28.1°C 58.4°F14.7°C 44% 1.0 mph SE1.6 kmh SE 3.0 mph4.8 kmh 30.15 in1021.0 mb 0.00 in0.0 mm 0.00 in0.0 mm 0.00 in0.0 mm
06:39 PM 82.3°F27.9°C 57.6°F14.2°C 43% 1.0 mph SE1.6 kmh SE 3.0 mph4.8 kmh 30.15 in1021.0 mb 0.00 in0.0 mm 0.00 in0.0 mm 0.00 in0.0 mm
06:44 PM 82.3°F27.9°C 57.6°F14.2°C 43% 1.3 mph SE2.1 kmh SE 2.0 mph3.2 kmh 30.15 in1021.0 mb 0.00 in0.0 mm 0.00 in0.0 mm 0.00 in0.0 mm
06:49 PM 82.0°F27.8°C 57.9°F14.4°C 44% 2.2 mph ESE3.5 kmh ESE 4.0 mph6.4 kmh 30.15 in1021.0 mb 0.00 in0.0 mm 0.00 in0.0 mm 0.00 in0.0 mm
06:54 PM 81.7°F27.6°C 58.3°F14.6°C 45% 1.5 mph ESE2.4 kmh ESE 4.0 mph6.4 kmh 30.15 in1021.0 mb 0.00 in0.0 mm 0.00 in0.0 mm 0.00 in0.0 mm
06:59 PM 81.5°F27.5°C 58.8°F14.9°C 46% 1.0 mph ESE1.6 kmh ESE 4.0 mph6.4 kmh 30.15 in1021.0 mb 0.00 in0.0 mm 0.00 in0.0 mm 0.00 in0.0 mm
07:04 PM 81.2°F27.3°C 59.7°F15.4°C 48% 1.0 mph E1.6 kmh E 4.0 mph6.4 kmh 30.15 in1021.0 mb 0.00 in0.0 mm 0.00 in0.0 mm 0.00 in0.0 mm
07:09 PM 81.0°F27.2°C 59.5°F15.3°C 48% 1.1 mph E1.8 kmh E 2.0 mph3.2 kmh 30.15 in1021.0 mb 0.00 in0.0 mm 0.00 in0.0 mm 0.00 in0.0 mm
07:14 PM 80.5°F26.9°C 59.7°F15.4°C 49% 1.5 mph SE2.4 kmh SE 3.0 mph4.8 kmh 30.15 in1021.0 mb 0.00 in0.0 mm 0.00 in0.0 mm 0.00 in0.0 mm
07:19 PM 79.9°F26.6°C 60.3°F15.7°C 51% 1.3 mph ESE2.1 kmh ESE 3.0 mph4.8 kmh 30.15 in1021.0 mb 0.00 in0.0 mm 0.00 in0.0 mm 0.00 in0.0 mm
07:24 PM 79.4°F26.3°C 59.2°F15.1°C 50% 1.3 mph ESE2.1 kmh ESE 3.0 mph4.8 kmh 30.15 in1021.0 mb 0.00 in0.0 mm 0.00 in0.0 mm 0.00 in0.0 mm
07:29 PM 79.2°F26.2°C 59.5°F15.3°C 51% 1.0 mph SE1.6 kmh SE 3.0 mph4.8 kmh 30.15 in1021.0 mb 0.00 in0.0 mm 0.00 in0.0 mm 0.00 in0.0 mm
07:34 PM 78.9°F26.1°C 59.2°F15.1°C 51% Calm Calm 3.0 mph4.8 kmh 30.15 in1021.0 mb 0.00 in0.0 mm 0.00 in0.0 mm 0.00 in0.0 mm
07:39 PM 78.7°F25.9°C 59.7°F15.4°C 52% 1.0 mph ESE1.6 kmh ESE 3.0 mph4.8 kmh 30.15 in1021.0 mb 0.00 in0.0 mm 0.00 in0.0 mm 0.00 in0.0 mm
07:44 PM 78.6°F25.9°C 59.5°F15.3°C 52% 1.4 mph ESE2.3 kmh ESE 3.0 mph4.8 kmh 30.15 in1021.0 mb 0.00 in0.0 mm 0.00 in0.0 mm 0.00 in0.0 mm
07:49 PM 78.5°F25.8°C 59.5°F15.3°C 52% 1.7 mph ESE2.7 kmh ESE 2.0 mph3.2 kmh 30.15 in1021.0 mb 0.00 in0.0 mm 0.00 in0.0 mm 0.00 in0.0 mm
07:54 PM 78.3°F25.7°C 59.4°F15.2°C 52% 1.9 mph SE3.1 kmh SE 3.0 mph4.8 kmh 30.16 in1021.3 mb 0.00 in0.0 mm 0.00 in0.0 mm 0.00 in0.0 mm
07:59 PM 78.0°F25.6°C 59.1°F15.1°C 52% 1.3 mph ESE2.1 kmh ESE 3.0 mph4.8 kmh 30.16 in1021.3 mb 0.00 in0.0 mm 0.00 in0.0 mm 0.00 in0.0 mm
08:04 PM 77.7°F25.4°C 58.8°F14.9°C 52% 1.8 mph ESE2.9 kmh ESE 3.0 mph4.8 kmh 30.16 in1021.3 mb 0.00 in0.0 mm 0.00 in0.0 mm 0.00 in0.0 mm
08:09 PM 77.7°F25.4°C 58.8°F14.9°C 52% 1.8 mph ESE2.9 kmh ESE 3.0 mph4.8 kmh 30.16 in1021.3 mb 0.00 in0.0 mm 0.00 in0.0 mm 0.00 in0.0 mm
08:14 PM 77.6°F25.3°C 58.6°F14.8°C 52% 1.8 mph ESE2.9 kmh ESE 3.0 mph4.8 kmh 30.16 in1021.3 mb 0.00 in0.0 mm 0.00 in0.0 mm 0.00 in0.0 mm
08:19 PM 77.4°F25.2°C 59.1°F15.1°C 53% 2.0 mph ESE3.2 kmh ESE 3.0 mph4.8 kmh 30.16 in1021.3 mb 0.00 in0.0 mm 0.00 in0.0 mm 0.00 in0.0 mm
08:24 PM 77.3°F25.2°C 59.0°F15.0°C 53% 1.4 mph SE2.3 kmh SE 3.0 mph4.8 kmh 30.16 in1021.3 mb 0.00 in0.0 mm 0.00 in0.0 mm 0.00 in0.0 mm
08:29 PM 77.1°F25.1°C 58.6°F14.8°C 53% 1.4 mph SE2.3 kmh SE 3.0 mph4.8 kmh 30.16 in1021.3 mb 0.00 in0.0 mm 0.00 in0.0 mm 0.00 in0.0 mm
08:34 PM 77.0°F25.0°C 58.7°F14.8°C 53% 1.7 mph SE2.7 kmh SE 3.0 mph4.8 kmh 30.16 in1021.3 mb 0.00 in0.0 mm 0.00 in0.0 mm 0.00 in0.0 mm
08:39 PM 77.0°F25.0°C 58.7°F14.8°C 53% 2.1 mph SE3.4 kmh SE 4.0 mph6.4 kmh 30.16 in1021.3 mb 0.00 in0.0 mm 0.00 in0.0 mm 0.00 in0.0 mm
08:44 PM 76.8°F24.9°C 58.5°F14.7°C 53% 2.3 mph SE3.7 kmh SE 4.0 mph6.4 kmh 30.16 in1021.3 mb 0.00 in0.0 mm 0.00 in0.0 mm 0.00 in0.0 mm
08:49 PM 76.8°F24.9°C 58.5°F14.7°C 53% 2.2 mph SE3.5 kmh SE 4.0 mph6.4 kmh 30.16 in1021.3 mb 0.00 in0.0 mm 0.00 in0.0 mm 0.00 in0.0 mm
08:54 PM 76.7°F24.8°C 58.4°F14.7°C 53% 1.5 mph SE2.4 kmh SE 4.0 mph6.4 kmh 30.16 in1021.3 mb 0.00 in0.0 mm 0.00 in0.0 mm 0.00 in0.0 mm
08:59 PM 76.6°F24.8°C 58.9°F14.9°C 54% 1.3 mph SE2.1 kmh SE 4.0 mph6.4 kmh 30.16 in1021.3 mb 0.00 in0.0 mm 0.00 in0.0 mm 0.00 in0.0 mm
09:05 PM 76.4°F24.7°C 58.7°F14.8°C 54% 1.6 mph ESE2.6 kmh ESE 4.0 mph6.4 kmh 30.17 in1021.7 mb 0.00 in0.0 mm 0.00 in0.0 mm 0.00 in0.0 mm
09:10 PM 76.3°F24.6°C 58.4°F14.7°C 54% 1.8 mph SE2.9 kmh SE 4.0 mph6.4 kmh 30.17 in1021.7 mb 0.00 in0.0 mm 0.00 in0.0 mm 0.00 in0.0 mm
09:15 PM 76.1°F24.5°C 58.2°F14.6°C 54% 1.9 mph SE3.1 kmh SE 4.0 mph6.4 kmh 30.17 in1021.7 mb 0.00 in0.0 mm 0.00 in0.0 mm 0.00 in0.0 mm
09:20 PM 76.1°F24.5°C 58.8°F14.9°C 55% 1.4 mph SE2.3 kmh SE 4.0 mph6.4 kmh 30.17 in1021.7 mb 0.00 in0.0 mm 0.00 in0.0 mm 0.00 in0.0 mm
09:25 PM 76.0°F24.4°C 58.7°F14.8°C 55% 1.6 mph SE2.6 kmh SE 4.0 mph6.4 kmh 30.17 in1021.7 mb 0.00 in0.0 mm 0.00 in0.0 mm 0.00 in0.0 mm
09:30 PM 75.9°F24.4°C 58.2°F14.6°C 54% 1.6 mph SE2.6 kmh SE 4.0 mph6.4 kmh 30.18 in1022.0 mb 0.00 in0.0 mm 0.00 in0.0 mm 0.00 in0.0 mm
09:35 PM 75.9°F24.4°C 58.2°F14.6°C 54% 1.6 mph SE2.6 kmh SE 4.0 mph6.4 kmh 30.18 in1022.0 mb 0.00 in0.0 mm 0.00 in0.0 mm 0.00 in0.0 mm
09:40 PM 75.7°F24.3°C 58.0°F14.4°C 54% Calm Calm 3.0 mph4.8 kmh 30.18 in1022.0 mb 0.00 in0.0 mm 0.00 in0.0 mm 0.00 in0.0 mm
09:45 PM 75.5°F24.2°C 58.4°F14.7°C 55% Calm Calm 3.0 mph4.8 kmh 30.18 in1022.0 mb 0.00 in0.0 mm 0.00 in0.0 mm 0.00 in0.0 mm
09:50 PM 75.4°F24.1°C 58.3°F14.6°C 55% 1.5 mph SE2.4 kmh SE 3.0 mph4.8 kmh 30.18 in1022.0 mb 0.00 in0.0 mm 0.00 in0.0 mm 0.00 in0.0 mm
09:55 PM 75.4°F24.1°C 57.7°F14.3°C 54% 2.2 mph SE3.5 kmh SE 3.0 mph4.8 kmh 30.18 in1022.0 mb 0.00 in0.0 mm 0.00 in0.0 mm 0.00 in0.0 mm
10:00 PM 75.3°F24.1°C 58.2°F14.6°C 55% 1.5 mph SE2.4 kmh SE 3.0 mph4.8 kmh 30.18 in1022.0 mb 0.00 in0.0 mm 0.00 in0.0 mm 0.00 in0.0 mm
10:05 PM 75.1°F23.9°C 58.0°F14.4°C 55% 1.7 mph SE2.7 kmh SE 3.0 mph4.8 kmh 30.18 in1022.0 mb 0.00 in0.0 mm 0.00 in0.0 mm 0.00 in0.0 mm
10:10 PM 75.2°F24.0°C 58.1°F14.5°C 55% 1.3 mph SE2.1 kmh SE 4.0 mph6.4 kmh 30.18 in1022.0 mb 0.00 in0.0 mm 0.00 in0.0 mm 0.00 in0.0 mm
10:15 PM 75.1°F23.9°C 58.0°F14.4°C 55% 1.7 mph SE2.7 kmh SE 4.0 mph6.4 kmh 30.19 in1022.4 mb 0.00 in0.0 mm 0.00 in0.0 mm 0.00 in0.0 mm
10:20 PM 75.0°F23.9°C 58.4°F14.7°C 56% 1.0 mph ESE1.6 kmh ESE 4.0 mph6.4 kmh 30.18 in1022.0 mb 0.00 in0.0 mm 0.00 in0.0 mm 0.00 in0.0 mm
10:25 PM 74.8°F23.8°C 58.2°F14.6°C 56% 1.0 mph SE1.6 kmh SE 4.0 mph6.4 kmh 30.18 in1022.0 mb 0.00 in0.0 mm 0.00 in0.0 mm 0.00 in0.0 mm
10:30 PM 74.6°F23.7°C 58.0°F14.4°C 56% Calm Calm 3.0 mph4.8 kmh 30.18 in1022.0 mb 0.00 in0.0 mm 0.00 in0.0 mm 0.00 in0.0 mm
10:35 PM 74.3°F23.5°C 58.1°F14.5°C 57% 1.0 mph SE1.6 kmh SE 2.0 mph3.2 kmh 30.18 in1022.0 mb 0.00 in0.0 mm 0.00 in0.0 mm 0.00 in0.0 mm
10:40 PM 74.0°F23.3°C 58.0°F14.4°C 57% 1.0 mph SE1.6 kmh SE 1.0 mph1.6 kmh 30.18 in1022.0 mb 0.00 in0.0 mm 0.00 in0.0 mm 0.00 in0.0 mm
10:45 PM 73.8°F23.2°C 58.1°F14.5°C 58% 2.2 mph SE3.5 kmh SE 3.0 mph4.8 kmh 30.19 in1022.4 mb 0.00 in0.0 mm 0.00 in0.0 mm 0.00 in0.0 mm
10:49 PM 73.6°F23.1°C 58.6°F14.8°C 59% 3.6 mph SE5.8 kmh SE 9.0 mph14.5 kmh 30.19 in1022.4 mb 0.00 in0.0 mm 0.00 in0.0 mm 0.00 in0.0 mm
10:54 PM 73.2°F22.9°C 59.1°F15.1°C 61% 3.2 mph SE5.1 kmh SE 9.0 mph14.5 kmh 30.19 in1022.4 mb 0.00 in0.0 mm 0.00 in0.0 mm 0.00 in0.0 mm
10:59 PM 72.9°F22.7°C 59.3°F15.2°C 62% 2.8 mph SE4.5 kmh SE 9.0 mph14.5 kmh 30.19 in1022.4 mb 0.00 in0.0 mm 0.00 in0.0 mm 0.00 in0.0 mm
11:04 PM 72.7°F22.6°C 59.6°F15.3°C 63% 2.9 mph SSE4.7 kmh SSE 9.0 mph14.5 kmh 30.19 in1022.4 mb 0.00 in0.0 mm 0.00 in0.0 mm 0.00 in0.0 mm
11:09 PM 72.5°F22.5°C 59.6°F15.3°C 64% 2.2 mph S3.5 kmh S 10.0 mph16.1 kmh 30.19 in1022.4 mb 0.00 in0.0 mm 0.00 in0.0 mm 0.00 in0.0 mm
11:14 PM 72.1°F22.3°C 59.9°F15.5°C 65% 1.7 mph S2.7 kmh S 10.0 mph16.1 kmh 30.19 in1022.4 mb 0.00 in0.0 mm 0.00 in0.0 mm 0.00 in0.0 mm
11:19 PM 71.7°F22.1°C 59.9°F15.5°C 66% 2.6 mph S4.2 kmh S 10.0 mph16.1 kmh 30.19 in1022.4 mb 0.00 in0.0 mm 0.00 in0.0 mm 0.00 in0.0 mm
11:24 PM 71.3°F21.8°C 60.0°F15.6°C 67% 2.1 mph SSE3.4 kmh SSE 10.0 mph16.1 kmh 30.19 in1022.4 mb 0.00 in0.0 mm 0.00 in0.0 mm 0.00 in0.0 mm
11:29 PM 71.0°F21.7°C 60.1°F15.6°C 68% 1.8 mph S2.9 kmh S 8.0 mph12.9 kmh 30.19 in1022.4 mb 0.00 in0.0 mm 0.00 in0.0 mm 0.00 in0.0 mm
11:34 PM 70.7°F21.5°C 60.2°F15.7°C 69% 1.4 mph S2.3 kmh S 8.0 mph12.9 kmh 30.19 in1022.4 mb 0.00 in0.0 mm 0.00 in0.0 mm 0.00 in0.0 mm
11:39 PM 70.4°F21.3°C 60.3°F15.7°C 70% 2.0 mph S3.2 kmh S 6.0 mph9.7 kmh 30.19 in1022.4 mb 0.00 in0.0 mm 0.00 in0.0 mm 0.00 in0.0 mm
11:44 PM 70.0°F21.1°C 59.9°F15.5°C 70% 1.0 mph SW1.6 kmh SW 6.0 mph9.7 kmh 30.19 in1022.4 mb 0.00 in0.0 mm 0.00 in0.0 mm 0.00 in0.0 mm
11:49 PM 69.7°F20.9°C 60.0°F15.6°C 71% 1.0 mph SE1.6 kmh SE 6.0 mph9.7 kmh 30.19 in1022.4 mb 0.00 in0.0 mm 0.00 in0.0 mm 0.00 in0.0 mm
11:54 PM 69.5°F20.8°C 60.1°F15.6°C 72% 1.6 mph S2.6 kmh S 4.0 mph6.4 kmh 30.19 in1022.4 mb 0.00 in0.0 mm 0.00 in0.0 mm 0.00 in0.0 mm
11:59 PM 69.4°F20.8°C 60.0°F15.6°C 72% 1.4 mph SSE2.3 kmh SSE 5.0 mph8.0 kmh 30.19 in1022.4 mb 0.00 in0.0 mm 0.00 in0.0 mm 0.00 in0.0 mm